Time;durP1;ratioP1;P1;durP2;ratioP2;P2;SDS_P1;SDS_P2;PMS_P1;PMS_P2;Temp;Humidity;BMP_temperature;BMP_pressure;BME280_temperature;BME280_humidity;BME280_pressure;Samples;Min_cycle;Max_cycle;Signal;HPM_P1;HPM_P2
2023/05/06 04:32:30;;;;;;;10.15;2.83;;;15.90;79.90;;;;;;4928493;29;20046;-75
2023/05/06 04:34:56;;;;;;;8.38;2.35;;;15.90;79.70;;;;;;4918481;29;20135;-74
2023/05/06 04:37:22;;;;;;;5.38;2.33;;;15.90;79.90;;;;;;4928100;29;20099;-75
2023/05/06 04:39:47;;;;;;;4.63;2.20;;;16.00;79.50;;;;;;4917666;29;20060;-74
2023/05/06 04:42:15;;;;;;;5.80;2.33;;;16.00;79.70;;;;;;4917624;29;20036;-74
2023/05/06 04:44:41;;;;;;;6.57;2.65;;;15.90;79.90;;;;;;4917335;29;20024;-75
2023/05/06 04:47:07;;;;;;;12.35;2.63;;;15.90;79.60;;;;;;4934590;29;20062;-74
2023/05/06 04:49:32;;;;;;;10.25;2.35;;;15.90;79.50;;;;;;4936587;29;20694;-74
2023/05/06 04:51:58;;;;;;;8.57;2.63;;;15.90;79.30;;;;;;4935964;29;20032;-74
2023/05/06 04:54:24;;;;;;;9.30;2.03;;;15.90;79.30;;;;;;4902813;29;20108;-74
2023/05/06 04:56:50;;;;;;;10.52;2.42;;;15.90;79.50;;;;;;4917313;29;20068;-74
2023/05/06 04:59:15;;;;;;;9.32;2.22;;;15.90;79.60;;;;;;4915937;29;20412;-74
2023/05/06 05:01:41;;;;;;;7.65;2.20;;;15.80;79.80;;;;;;4924228;29;20016;-74
2023/05/06 05:04:06;;;;;;;7.72;2.40;;;15.90;79.60;;;;;;4930914;29;20028;-74
2023/05/06 05:06:32;;;;;;;6.70;2.33;;;15.80;79.80;;;;;;4934386;29;20805;-74
2023/05/06 05:08:58;;;;;;;9.02;2.58;;;15.90;79.70;;;;;;4943496;29;20039;-74
2023/05/06 05:11:24;;;;;;;5.47;1.98;;;15.90;79.50;;;;;;4941286;29;20027;-75
2023/05/06 05:13:50;;;;;;;11.25;2.15;;;15.90;79.20;;;;;;4928666;29;20554;-75
2023/05/06 05:16:16;;;;;;;10.48;2.42;;;16.00;79.30;;;;;;4920447;29;20060;-75
2023/05/06 05:18:41;;;;;;;9.18;2.10;;;16.00;79.40;;;;;;4920524;29;20024;-75
2023/05/06 05:21:07;;;;;;;8.20;2.95;;;16.10;79.00;;;;;;4926620;29;20517;-75
2023/05/06 05:23:33;;;;;;;10.30;2.58;;;16.00;78.70;;;;;;4919829;29;20036;-75
2023/05/06 05:25:58;;;;;;;4.72;2.03;;;16.10;78.60;;;;;;4920382;29;20148;-75
2023/05/06 05:28:24;;;;;;;6.47;2.75;;;16.10;79.00;;;;;;4926166;29;20030;-75
2023/05/06 05:30:50;;;;;;;5.65;2.28;;;16.10;79.00;;;;;;4927499;29;20051;-75
2023/05/06 05:33:15;;;;;;;7.97;2.20;;;16.10;79.00;;;;;;4939143;29;20064;-74
2023/05/06 05:35:41;;;;;;;7.78;2.53;;;16.10;79.10;;;;;;4938206;29;20193;-74
2023/05/06 05:38:07;;;;;;;8.38;2.38;;;16.10;79.10;;;;;;4938172;29;20039;-74
2023/05/06 05:40:34;;;;;;;13.18;2.50;;;16.00;79.30;;;;;;4934588;29;20059;-75
2023/05/06 05:42:59;;;;;;;10.85;2.25;;;16.10;78.80;;;;;;4920019;29;20036;-75
2023/05/06 05:45:25;;;;;;;8.63;2.50;;;16.20;78.80;;;;;;4919957;29;20080;-75
2023/05/06 05:47:52;;;;;;;9.20;2.58;;;16.20;78.70;;;;;;4919697;29;20479;-74
2023/05/06 05:50:18;;;;;;;12.27;2.40;;;16.20;78.80;;;;;;4903237;29;20562;-74
2023/05/06 05:52:44;;;;;;;10.27;2.58;;;16.30;79.00;;;;;;4921622;29;20080;-74
2023/05/06 05:55:09;;;;;;;8.48;2.38;;;16.30;79.10;;;;;;4923035;29;20024;-74
2023/05/06 05:57:36;;;;;;;6.22;2.33;;;16.30;79.40;;;;;;4938357;29;20016;-78
2023/05/06 06:00:04;;;;;;;8.55;2.10;;;16.30;79.10;;;;;;4937986;29;20023;-76
2023/05/06 06:02:30;;;;;;;9.70;2.28;;;16.40;78.60;;;;;;4929541;29;20034;-88
2023/05/06 06:04:56;;;;;;;11.50;2.38;;;16.50;78.50;;;;;;4921613;29;20027;-78
2023/05/06 06:07:22;;;;;;;10.70;2.53;;;16.50;78.60;;;;;;4938685;29;20032;-76
2023/05/06 06:09:47;;;;;;;12.45;2.58;;;16.60;78.70;;;;;;4934964;29;20402;-75
2023/05/06 06:12:13;;;;;;;12.18;3.33;;;16.50;78.30;;;;;;4938469;29;20546;-75
2023/05/06 06:14:39;;;;;;;9.98;2.72;;;16.50;78.60;;;;;;4917454;29;20056;-75
2023/05/06 06:17:05;;;;;;;5.65;2.35;;;16.40;78.90;;;;;;4919328;29;20040;-75
2023/05/06 06:19:31;;;;;;;5.97;2.17;;;16.40;79.00;;;;;;4919330;29;20024;-82
2023/05/06 06:21:56;;;;;;;9.00;2.70;;;16.40;78.90;;;;;;4930404;29;20038;-81
2023/05/06 06:24:22;;;;;;;11.13;2.70;;;16.50;78.80;;;;;;4940340;29;20031;-76
2023/05/06 06:26:48;;;;;;;7.82;2.22;;;16.60;78.60;;;;;;4937781;29;20028;-78
2023/05/06 06:29:13;;;;;;;7.20;2.00;;;16.60;78.40;;;;;;4919861;29;20038;-76
2023/05/06 06:31:39;;;;;;;7.57;2.05;;;16.80;78.20;;;;;;4937279;29;20052;-77
2023/05/06 06:34:05;;;;;;;10.25;2.35;;;16.80;78.00;;;;;;4936669;29;20027;-78
2023/05/06 06:36:31;;;;;;;7.10;2.22;;;16.80;77.80;;;;;;4936277;29;20036;-74
2023/05/06 06:38:57;;;;;;;6.80;2.35;;;16.80;77.40;;;;;;4932111;29;20032;-80
2023/05/06 06:41:23;;;;;;;7.57;2.17;;;16.80;77.70;;;;;;4917292;29;20095;-81
2023/05/06 06:43:48;;;;;;;6.97;2.17;;;16.80;77.70;;;;;;4921615;29;20034;-83
2023/05/06 06:46:14;;;;;;;5.60;2.17;;;16.90;77.50;;;;;;4918141;29;20031;-76
2023/05/06 06:48:40;;;;;;;6.43;2.20;;;16.80;77.60;;;;;;4927792;29;20101;-75
2023/05/06 06:51:05;;;;;;;8.68;2.10;;;16.90;77.90;;;;;;4923706;29;20064;-77
2023/05/06 06:53:31;;;;;;;4.45;2.00;;;17.00;77.50;;;;;;4918859;29;20123;-76
2023/05/06 06:55:57;;;;;;;6.15;2.08;;;17.20;77.10;;;;;;4932536;29;20032;-78
2023/05/06 06:58:23;;;;;;;6.22;2.10;;;17.30;76.80;;;;;;4937342;29;20039;-81
2023/05/06 07:00:48;;;;;;;7.60;2.00;;;17.30;76.60;;;;;;4917337;29;20046;-76
2023/05/06 07:03:18;;;;;;;5.57;2.05;;;17.40;76.10;;;;;;4925859;29;20024;-75
2023/05/06 07:05:44;;;;;;;5.30;1.90;;;17.30;76.30;;;;;;4926475;29;20047;-76
2023/05/06 07:08:10;;;;;;;11.18;2.30;;;17.30;76.50;;;;;;4903951;29;20269;-77
2023/05/06 07:10:36;;;;;;;6.78;1.77;;;17.30;76.40;;;;;;4932870;29;20059;-77
2023/05/06 07:13:01;;;;;;;7.97;1.80;;;17.30;76.10;;;;;;4938092;29;20031;-78
2023/05/06 07:15:27;;;;;;;9.60;1.92;;;17.40;75.90;;;;;;4922727;29;20051;-86
2023/05/06 07:17:53;;;;;;;5.53;1.55;;;17.40;75.70;;;;;;4934923;29;20039;-77
2023/05/06 07:20:19;;;;;;;7.28;2.10;;;17.50;75.80;;;;;;4932795;29;20031;-78
2023/05/06 07:22:44;;;;;;;6.43;1.98;;;17.60;75.40;;;;;;4919078;29;20024;-85
2023/05/06 07:25:10;;;;;;;9.75;1.80;;;17.80;75.00;;;;;;4902536;29;20029;-78
2023/05/06 07:27:36;;;;;;;9.70;2.58;;;18.00;74.40;;;;;;4919523;29;20557;-79
2023/05/06 07:30:02;;;;;;;8.63;1.85;;;18.20;74.00;;;;;;4910464;29;20068;-82
2023/05/06 07:32:28;;;;;;;11.00;1.98;;;18.30;73.80;;;;;;4919904;29;20044;-80
2023/05/06 07:34:53;;;;;;;7.57;1.63;;;18.40;72.90;;;;;;4939594;29;20560;-79
2023/05/06 07:37:19;;;;;;;9.18;1.55;;;18.40;72.60;;;;;;4925945;29;20394;-81
2023/05/06 07:39:45;;;;;;;6.55;1.70;;;18.30;72.70;;;;;;4940890;29;20059;-80
2023/05/06 07:42:11;;;;;;;9.23;1.95;;;18.30;72.90;;;;;;4941471;29;20020;-79
2023/05/06 07:44:38;;;;;;;9.55;1.80;;;18.20;72.50;;;;;;4937816;29;20122;-78
2023/05/06 07:47:03;;;;;;;4.85;1.60;;;18.10;73.10;;;;;;4922886;29;20766;-79
2023/05/06 07:49:32;;;;;;;9.80;1.50;;;18.00;73.40;;;;;;4921542;29;20130;-79
2023/05/06 07:51:57;;;;;;;8.25;2.42;;;17.90;73.50;;;;;;4938927;29;20030;-78
2023/05/06 07:54:23;;;;;;;6.05;2.10;;;17.80;73.60;;;;;;4921988;29;20486;-78
2023/05/06 07:56:49;;;;;;;5.65;1.52;;;17.80;73.40;;;;;;4922633;29;20092;-78
2023/05/06 07:59:14;;;;;;;10.02;1.83;;;17.70;73.80;;;;;;4921437;29;20102;-79
2023/05/06 08:01:40;;;;;;;8.25;2.20;;;17.70;74.10;;;;;;4938237;29;20028;-78
2023/05/06 08:04:06;;;;;;;7.47;2.30;;;17.60;74.10;;;;;;4939757;29;20537;-79
2023/05/06 08:06:31;;;;;;;5.10;1.77;;;17.60;74.10;;;;;;4922585;29;20060;-79
2023/05/06 08:08:57;;;;;;;11.07;2.00;;;17.70;74.20;;;;;;4919730;29;20024;-79
2023/05/06 08:11:23;;;;;;;10.07;2.03;;;17.70;74.10;;;;;;4922168;29;20032;-81
2023/05/06 08:13:49;;;;;;;8.20;1.77;;;17.70;74.40;;;;;;4922154;29;20075;-79
2023/05/06 08:16:15;;;;;;;5.35;1.67;;;17.70;74.60;;;;;;4937170;29;20039;-78
2023/05/06 08:18:40;;;;;;;5.93;2.30;;;17.70;74.60;;;;;;4921510;29;20070;-79
2023/05/06 08:21:06;;;;;;;5.70;2.25;;;17.60;74.50;;;;;;4922332;29;20032;-78
2023/05/06 08:23:32;;;;;;;9.63;2.00;;;17.70;74.60;;;;;;4940042;29;20110;-79
2023/05/06 08:26:00;;;;;;;7.25;1.95;;;17.70;75.10;;;;;;4921616;29;20091;-79
2023/05/06 08:28:34;;;;;;;8.65;2.47;;;17.60;74.00;;;;;;4936065;29;20642;-79
2023/05/06 08:31:02;;;;;;;8.80;2.28;;;17.50;75.00;;;;;;4919685;29;20537;-79
2023/05/06 08:33:29;;;;;;;9.43;1.92;;;17.40;75.30;;;;;;4929487;29;20042;-79
2023/05/06 08:35:56;;;;;;;7.82;1.92;;;17.40;75.50;;;;;;4939252;29;20564;-79
2023/05/06 08:38:22;;;;;;;4.85;1.70;;;17.40;75.60;;;;;;4926158;29;20040;-79
2023/05/06 08:40:48;;;;;;;9.43;2.17;;;17.50;75.90;;;;;;4938821;29;20022;-79
2023/05/06 08:43:13;;;;;;;6.15;2.17;;;17.50;75.90;;;;;;4924948;29;20522;-77
2023/05/06 08:45:40;;;;;;;9.60;2.38;;;17.50;76.00;;;;;;4921084;29;20111;-77
2023/05/06 08:48:06;;;;;;;6.10;2.42;;;17.60;75.80;;;;;;4921038;29;20028;-77
2023/05/06 08:50:34;;;;;;;7.75;2.40;;;17.60;75.60;;;;;;4920591;29;20398;-77
2023/05/06 08:53:01;;;;;;;7.13;2.20;;;17.70;75.70;;;;;;4919222;29;20032;-78
2023/05/06 08:55:27;;;;;;;5.55;2.03;;;17.70;75.80;;;;;;4920757;29;20024;-76
2023/05/06 08:57:55;;;;;;;4.88;2.08;;;17.70;75.20;;;;;;4935775;29;20024;-76
2023/05/06 09:00:21;;;;;;;5.07;2.20;;;17.70;75.70;;;;;;4923106;29;20075;-79
2023/05/06 09:02:46;;;;;;;7.18;2.63;;;17.90;75.40;;;;;;4940714;29;20028;-77
2023/05/06 09:05:12;;;;;;;7.72;2.00;;;17.90;75.30;;;;;;4939719;29;20111;-77
2023/05/06 09:07:37;;;;;;;6.40;2.30;;;18.10;75.00;;;;;;4927201;29;20075;-79
2023/05/06 09:10:14;;;;;;;4.07;1.83;;;18.20;75.30;;;;;;4937328;29;20038;-77
2023/05/06 09:12:39;;;;;;;4.47;2.63;;;18.30;75.00;;;;;;4920463;29;20040;-78
2023/05/06 09:15:06;;;;;;;6.78;2.03;;;18.40;74.70;;;;;;4919924;29;20036;-77
2023/05/06 09:17:31;;;;;;;6.28;1.85;;;18.40;74.30;;;;;;4938947;29;20039;-77
2023/05/06 09:19:57;;;;;;;5.35;1.90;;;18.50;74.10;;;;;;4952935;29;20047;-77
2023/05/06 09:22:25;;;;;;;4.32;1.85;;;18.70;74.30;;;;;;4944590;29;20032;-77
2023/05/06 09:24:55;;;;;;;4.88;1.75;;;18.60;73.50;;;;;;4923273;29;20057;-77
2023/05/06 09:27:32;;;;;;;6.57;1.42;;;18.50;73.50;;;;;;4920853;29;20039;-77
2023/05/06 09:30:04;;;;;;;5.75;1.80;;;18.40;73.00;;;;;;4938684;29;20574;-77
2023/05/06 09:32:31;;;;;;;7.32;1.65;;;18.30;73.40;;;;;;4923162;29;20511;-76
2023/05/06 09:34:56;;;;;;;9.75;2.35;;;18.30;74.30;;;;;;4938784;29;20030;-77
2023/05/06 09:37:25;;;;;;;4.43;1.77;;;18.30;74.60;;;;;;4915554;29;20036;-77
2023/05/06 09:39:56;;;;;;;7.43;1.83;;;18.30;74.80;;;;;;4920204;29;20414;-77
2023/05/06 09:42:24;;;;;;;4.20;1.50;;;18.30;74.40;;;;;;4931524;29;20402;-79
2023/05/06 09:44:55;;;;;;;6.38;1.90;;;18.40;74.70;;;;;;4919865;29;20031;-78
2023/05/06 09:47:23;;;;;;;4.85;1.60;;;18.50;74.10;;;;;;4911565;29;20032;-77
2023/05/06 09:49:48;;;;;;;3.17;1.50;;;18.70;73.70;;;;;;4927666;29;20062;-76
2023/05/06 09:52:14;;;;;;;5.70;1.55;;;18.80;73.60;;;;;;4935689;29;20032;-77
2023/05/06 09:54:40;;;;;;;4.88;1.67;;;19.00;73.30;;;;;;4936804;29;20038;-76
2023/05/06 09:57:06;;;;;;;8.40;1.88;;;19.10;72.10;;;;;;4919297;29;20031;-76
2023/05/06 09:59:32;;;;;;;4.30;1.73;;;19.00;71.80;;;;;;4919451;29;20028;-77
2023/05/06 10:01:59;;;;;;;3.47;1.77;;;19.20;71.70;;;;;;4936532;29;20028;-77
2023/05/06 10:04:26;;;;;;;5.45;1.67;;;19.40;71.20;;;;;;4934851;29;20479;-77
2023/05/06 10:06:55;;;;;;;5.90;1.65;;;19.50;71.70;;;;;;4935561;29;20034;-77
2023/05/06 10:09:24;;;;;;;5.37;1.37;;;19.50;71.50;;;;;;4916441;29;20020;-76
2023/05/06 10:11:51;;;;;;;5.30;1.90;;;19.60;71.40;;;;;;4937659;29;20303;-77
2023/05/06 10:14:18;;;;;;;5.97;2.15;;;19.80;70.40;;;;;;4936469;29;20036;-76
2023/05/06 10:16:47;;;;;;;2.97;1.27;;;20.00;70.20;;;;;;4921000;29;20024;-77
2023/05/06 10:19:17;;;;;;;4.30;1.50;;;20.40;70.00;;;;;;4927602;29;20020;-76
2023/05/06 10:21:52;;;;;;;2.90;1.40;;;20.80;69.60;;;;;;4917878;29;20028;-77
2023/05/06 10:24:22;;;;;;;3.30;0.95;;;21.50;67.70;;;;;;4906970;29;20031;-76
2023/05/06 10:26:50;;;;;;;3.30;1.35;;;21.40;66.20;;;;;;4940247;29;20044;-77
2023/05/06 10:29:17;;;;;;;4.50;1.73;;;21.30;66.00;;;;;;4916563;29;20028;-76
2023/05/06 10:31:54;;;;;;;7.90;1.77;;;21.20;66.10;;;;;;4935200;29;20450;-77
2023/05/06 10:34:21;;;;;;;6.63;1.73;;;21.20;66.10;;;;;;4918578;29;20524;-79
2023/05/06 10:36:52;;;;;;;8.63;1.80;;;21.30;64.90;;;;;;4928846;29;20043;-79
2023/05/06 10:39:18;;;;;;;6.15;1.50;;;21.30;63.90;;;;;;4919171;29;20020;-81
2023/05/06 10:41:44;;;;;;;2.75;1.25;;;21.30;64.30;;;;;;4919514;29;20032;-78
2023/05/06 10:44:10;;;;;;;7.50;1.67;;;21.40;64.90;;;;;;4902519;29;20395;-75
2023/05/06 10:46:56;;;;;;;4.07;2.00;;;21.40;65.60;;;;;;4919124;29;20039;-77
2023/05/06 10:49:21;;;;;;;4.85;1.45;;;21.40;63.90;;;;;;4921152;29;20032;-76
2023/05/06 10:51:47;;;;;;;8.40;2.25;;;21.40;65.20;;;;;;4923060;29;20032;-75
2023/05/06 10:54:19;;;;;;;5.40;1.52;;;21.40;64.50;;;;;;4923015;29;20463;-76
2023/05/06 10:56:48;;;;;;;6.03;1.50;;;21.40;63.60;;;;;;4924696;29;20036;-77
2023/05/06 10:59:15;;;;;;;5.95;1.67;;;21.30;65.10;;;;;;4944609;29;20058;-75
2023/05/06 11:01:43;;;;;;;6.57;1.73;;;21.40;64.00;;;;;;4942388;29;20035;-77
2023/05/06 11:04:18;;;;;;;4.68;1.50;;;21.50;65.30;;;;;;4938695;29;20051;-77
2023/05/06 11:06:48;;;;;;;7.80;1.85;;;21.80;64.40;;;;;;4939004;29;20036;-78
2023/05/06 11:09:22;;;;;;;3.45;1.50;;;21.90;64.40;;;;;;4938183;29;20035;-77
2023/05/06 11:11:48;;;;;;;3.55;1.42;;;22.00;64.10;;;;;;4920626;29;20574;-76
2023/05/06 11:14:23;;;;;;;5.55;1.50;;;21.90;64.30;;;;;;4922839;29;20153;-76
2023/05/06 11:16:50;;;;;;;8.88;1.92;;;21.80;63.30;;;;;;4937002;29;20582;-77
2023/05/06 11:19:27;;;;;;;6.65;1.83;;;21.60;63.40;;;;;;4921365;29;20510;-76
2023/05/06 11:21:56;;;;;;;6.32;1.70;;;21.70;64.10;;;;;;4922751;29;20059;-76
2023/05/06 11:24:24;;;;;;;4.72;1.70;;;21.80;64.50;;;;;;4922666;29;20017;-78
2023/05/06 11:26:50;;;;;;;5.93;1.63;;;22.00;64.60;;;;;;4922348;29;20064;-78
2023/05/06 11:29:17;;;;;;;3.45;1.02;;;22.30;63.80;;;;;;4923546;29;20028;-77
2023/05/06 11:31:44;;;;;;;3.35;1.35;;;22.40;64.50;;;;;;4941113;29;20080;-80
2023/05/06 11:34:20;;;;;;;5.03;1.83;;;22.50;63.00;;;;;;4928953;29;20088;-80
2023/05/06 11:36:51;;;;;;;3.63;1.48;;;22.70;64.70;;;;;;4925221;29;20044;-78
2023/05/06 11:39:17;;;;;;;7.32;1.63;;;22.60;62.70;;;;;;4938789;29;20503;-77
2023/05/06 11:41:43;;;;;;;9.65;1.65;;;22.40;60.90;;;;;;4932334;29;20043;-85
2023/05/06 11:44:11;;;;;;;4.07;1.50;;;22.60;63.30;;;;;;4943230;29;20031;-89
2023/05/06 11:46:37;;;;;;;3.72;1.25;;;22.70;62.10;;;;;;4930067;29;20089;-86
2023/05/06 11:49:03;;;;;;;5.00;1.25;;;22.70;61.50;;;;;;4930352;29;20032;-82
2023/05/06 11:51:28;;;;;;;5.25;1.40;;;22.70;62.50;;;;;;4914574;29;20047;-85
2023/05/06 11:54:09;;;;;;;5.18;1.80;;;22.70;62.30;;;;;;4938605;29;20035;-84
2023/05/06 11:56:46;;;;;;;4.55;2.00;;;22.70;60.90;;;;;;4928755;29;20100;-82
2023/05/06 11:59:12;;;;;;;5.70;1.58;;;22.80;61.50;;;;;;4909585;29;20102;-82
2023/05/06 12:01:41;;;;;;;4.82;1.45;;;22.80;61.40;;;;;;4908536;29;20043;-82
2023/05/06 12:04:07;;;;;;;3.33;1.40;;;22.70;61.20;;;;;;4930204;29;20107;-82
2023/05/06 12:06:36;;;;;;;4.78;1.30;;;22.60;61.30;;;;;;4929818;29;20062;-81
2023/05/06 12:09:05;;;;;;;7.93;1.48;;;22.60;61.40;;;;;;4929064;29;20095;-81
2023/05/06 12:11:35;;;;;;;5.38;1.50;;;22.60;60.60;;;;;;4913999;29;20043;-82
2023/05/06 12:14:04;;;;;;;6.13;1.50;;;22.70;60.70;;;;;;4930011;29;20028;-81
2023/05/06 12:16:30;;;;;;;8.13;1.40;;;22.80;60.70;;;;;;4928706;29;20039;-81
2023/05/06 12:18:56;;;;;;;5.75;1.83;;;22.70;60.60;;;;;;4930320;29;20040;-81
2023/05/06 12:21:23;;;;;;;5.00;1.50;;;22.80;61.80;;;;;;4927645;29;20012;-81
2023/05/06 12:23:53;;;;;;;4.30;1.35;;;22.80;60.50;;;;;;4932172;29;20036;-81
2023/05/06 12:26:20;;;;;;;4.88;1.30;;;22.70;61.10;;;;;;4928538;29;20028;-81
2023/05/06 12:29:02;;;;;;;3.00;1.23;;;22.60;61.20;;;;;;4928222;29;20138;-82
2023/05/06 12:31:27;;;;;;;7.88;1.55;;;22.50;60.40;;;;;;4928754;29;20426;-81
2023/05/06 12:33:53;;;;;;;5.13;1.23;;;22.40;60.30;;;;;;4934070;29;20106;-81
2023/05/06 12:36:18;;;;;;;5.00;1.42;;;22.30;60.60;;;;;;4928717;29;20024;-82
2023/05/06 12:38:58;;;;;;;5.75;1.50;;;22.30;61.00;;;;;;4924677;29;20092;-81
2023/05/06 12:41:43;;;;;;;5.18;1.38;;;22.30;60.40;;;;;;4915316;29;20020;-87
2023/05/06 12:44:32;;;;;;;5.38;1.33;;;22.40;60.80;;;;;;4926134;29;20631;-82
2023/05/06 12:47:21;;;;;;;10.00;1.73;;;22.50;60.00;;;;;;4919238;29;20027;-82
2023/05/06 12:49:54;;;;;;;3.55;1.30;;;22.50;60.80;;;;;;4928476;29;20048;-82
2023/05/06 12:52:21;;;;;;;9.02;1.90;;;22.50;60.40;;;;;;4940239;29;20065;-82
2023/05/06 12:54:48;;;;;;;3.35;1.08;;;22.50;60.70;;;;;;4936277;29;20110;-82
2023/05/06 12:57:14;;;;;;;3.28;1.02;;;22.60;60.40;;;;;;4932618;29;20028;-87
2023/05/06 12:59:42;;;;;;;4.60;1.20;;;22.70;60.30;;;;;;4923039;29;20020;-82
2023/05/06 13:02:08;;;;;;;6.75;1.70;;;22.80;59.80;;;;;;4919862;29;20032;-83
2023/05/06 13:04:34;;;;;;;5.57;1.48;;;22.90;59.80;;;;;;4938820;29;20032;-82
2023/05/06 13:06:59;;;;;;;3.88;1.27;;;23.00;59.00;;;;;;4903933;29;20509;-82
2023/05/06 13:09:25;;;;;;;2.85;1.25;;;22.90;58.60;;;;;;4930702;29;20043;-81
2023/05/06 13:11:51;;;;;;;6.65;1.73;;;22.80;59.10;;;;;;4923851;29;20032;-81
2023/05/06 13:14:17;;;;;;;5.95;1.40;;;22.80;59.40;;;;;;4919458;29;20064;-81
2023/05/06 13:16:43;;;;;;;7.72;1.83;;;22.80;60.70;;;;;;4932972;29;20032;-81
2023/05/06 13:19:11;;;;;;;5.22;1.50;;;22.70;59.60;;;;;;4936071;29;20043;-81
2023/05/06 13:21:38;;;;;;;3.70;1.33;;;22.50;59.30;;;;;;4920994;29;20088;-91
2023/05/06 13:24:04;;;;;;;5.45;1.13;;;22.30;60.30;;;;;;4918804;29;20027;-80
2023/05/06 13:26:31;;;;;;;3.17;1.25;;;22.10;60.70;;;;;;4938859;29;20027;-82
2023/05/06 13:28:56;;;;;;;5.88;1.73;;;22.00;60.80;;;;;;4914871;29;20537;-81
2023/05/06 13:31:22;;;;;;;5.78;1.48;;;22.00;61.40;;;;;;4932953;29;20071;-78
2023/05/06 13:33:48;;;;;;;5.32;1.20;;;21.80;61.40;;;;;;4920903;29;20036;-78
2023/05/06 13:36:14;;;;;;;6.47;1.63;;;21.90;61.90;;;;;;4933819;29;20111;-78
2023/05/06 13:38:39;;;;;;;6.40;1.70;;;21.80;62.10;;;;;;4920339;29;20024;-78
2023/05/06 13:41:06;;;;;;;3.00;1.00;;;21.80;62.10;;;;;;4919781;29;20040;-78
2023/05/06 13:43:31;;;;;;;5.60;1.40;;;21.80;62.00;;;;;;4916651;29;20495;-78
2023/05/06 13:45:57;;;;;;;3.17;1.20;;;21.70;62.30;;;;;;4919688;29;20024;-81
2023/05/06 13:48:23;;;;;;;2.95;1.25;;;21.60;61.90;;;;;;4926090;29;20760;-78
2023/05/06 13:50:48;;;;;;;3.15;1.00;;;21.50;61.20;;;;;;4929877;29;20050;-78
2023/05/06 13:53:14;;;;;;;4.47;1.40;;;21.60;62.60;;;;;;4900022;29;20047;-77
2023/05/06 13:55:41;;;;;;;4.80;1.13;;;21.70;62.30;;;;;;4956936;29;20027;-77
2023/05/06 13:58:07;;;;;;;2.30;1.40;;;21.80;62.10;;;;;;4918177;29;20024;-76
2023/05/06 14:00:34;;;;;;;8.30;1.40;;;21.90;61.60;;;;;;4929791;29;20034;-77
2023/05/06 14:03:00;;;;;;;3.95;1.42;;;21.80;60.90;;;;;;4923595;29;20044;-78
2023/05/06 14:05:26;;;;;;;2.83;1.42;;;21.80;61.60;;;;;;4957673;29;20034;-78
2023/05/06 14:07:52;;;;;;;2.20;1.35;;;21.80;62.10;;;;;;4920878;29;20498;-78
2023/05/06 14:10:19;;;;;;;9.63;1.65;;;21.80;62.00;;;;;;4929477;29;20031;-76
2023/05/06 14:12:46;;;;;;;4.28;1.60;;;21.70;62.70;;;;;;4921098;29;20664;-79
2023/05/06 14:15:13;;;;;;;4.13;1.77;;;21.70;62.30;;;;;;4915975;29;20042;-77
2023/05/06 14:17:40;;;;;;;3.08;1.08;;;21.60;63.40;;;;;;4933635;29;20027;-78
2023/05/06 14:20:07;;;;;;;5.05;1.50;;;21.60;63.50;;;;;;4941357;29;20113;-78
2023/05/06 14:22:33;;;;;;;6.18;1.40;;;21.60;63.80;;;;;;4933070;29;20028;-76
2023/05/06 14:24:59;;;;;;;3.90;1.60;;;21.70;64.10;;;;;;4926670;29;20038;-74
2023/05/06 14:27:25;;;;;;;4.32;1.60;;;21.70;64.10;;;;;;4913988;29;20047;-77
2023/05/06 14:29:51;;;;;;;4.18;1.52;;;21.60;64.40;;;;;;4937291;29;20433;-77
2023/05/06 14:32:16;;;;;;;4.88;1.70;;;21.50;64.30;;;;;;4922581;29;20107;-77
2023/05/06 14:34:42;;;;;;;5.53;1.75;;;21.30;63.30;;;;;;4943650;29;20159;-77
2023/05/06 14:37:07;;;;;;;8.27;2.63;;;20.90;64.20;;;;;;4937717;29;20040;-77
2023/05/06 14:39:33;;;;;;;6.35;1.67;;;20.80;65.00;;;;;;4918532;29;20522;-77
2023/05/06 14:41:59;;;;;;;4.25;1.60;;;20.70;65.80;;;;;;4919213;29;20490;-77
2023/05/06 14:44:24;;;;;;;3.83;1.42;;;20.50;67.30;;;;;;4901686;29;20051;-77
2023/05/06 14:46:50;;;;;;;6.03;1.60;;;20.30;69.20;;;;;;4902419;29;20032;-77
2023/05/06 14:49:16;;;;;;;6.75;1.90;;;20.30;70.10;;;;;;4928561;29;20032;-77
2023/05/06 14:51:42;;;;;;;6.53;2.00;;;20.50;70.70;;;;;;4920232;29;20032;-78
2023/05/06 14:54:08;;;;;;;6.80;2.40;;;20.70;72.80;;;;;;4928086;29;20028;-78
2023/05/06 14:56:34;;;;;;;5.55;2.10;;;21.00;72.10;;;;;;4924579;29;20035;-81
2023/05/06 14:59:00;;;;;;;4.25;1.95;;;21.40;71.80;;;;;;4925303;29;20103;-79
2023/05/06 15:01:26;;;;;;;8.02;2.67;;;21.70;71.50;;;;;;4921988;29;20512;-80
2023/05/06 15:03:52;;;;;;;6.03;2.17;;;21.90;71.80;;;;;;4921671;29;20031;-77
2023/05/06 15:06:18;;;;;;;5.07;2.63;;;21.80;71.70;;;;;;4919282;29;20043;-80
2023/05/06 15:08:44;;;;;;;7.35;2.55;;;21.70;70.80;;;;;;4922122;29;20028;-77
2023/05/06 15:11:11;;;;;;;4.57;2.17;;;21.60;70.60;;;;;;4928680;29;20096;-78
2023/05/06 15:13:36;;;;;;;6.57;3.10;;;21.50;71.70;;;;;;4937976;29;20031;-77
2023/05/06 15:16:02;;;;;;;6.57;2.72;;;21.30;70.60;;;;;;4936792;29;20466;-78
2023/05/06 15:18:28;;;;;;;5.32;2.20;;;21.30;72.10;;;;;;4940382;29;20390;-79
2023/05/06 15:20:54;;;;;;;10.25;3.60;;;21.40;72.10;;;;;;4937937;29;20031;-79
2023/05/06 15:23:20;;;;;;;4.65;2.13;;;21.50;70.90;;;;;;4937994;29;20099;-80
2023/05/06 15:25:46;;;;;;;5.00;2.10;;;21.60;69.60;;;;;;4927437;29;20398;-84
2023/05/06 15:28:11;;;;;;;8.27;2.80;;;21.70;70.40;;;;;;4933702;29;20038;-85
2023/05/06 15:30:37;;;;;;;4.68;2.00;;;21.80;70.30;;;;;;4922231;29;20599;-80
2023/05/06 15:33:04;;;;;;;7.10;2.38;;;21.80;69.60;;;;;;4920891;29;20027;-80
2023/05/06 15:35:30;;;;;;;6.63;2.45;;;21.80;69.10;;;;;;4939901;29;20034;-80
2023/05/06 15:37:59;;;;;;;5.93;2.55;;;21.70;69.70;;;;;;4928654;29;20032;-80
2023/05/06 15:40:25;;;;;;;8.50;3.80;;;21.70;69.40;;;;;;4922341;29;20106;-79
2023/05/06 15:42:51;;;;;;;6.20;2.95;;;21.70;70.30;;;;;;4922342;29;20074;-79
2023/05/06 15:45:17;;;;;;;5.25;2.25;;;21.60;70.50;;;;;;4922302;29;20028;-79
2023/05/06 15:47:43;;;;;;;5.93;2.13;;;21.50;69.90;;;;;;4924472;29;20375;-79
2023/05/06 15:50:09;;;;;;;5.38;2.42;;;21.50;70.20;;;;;;4920758;29;20036;-80
2023/05/06 15:52:35;;;;;;;5.10;2.33;;;21.40;70.70;;;;;;4936313;29;20040;-80
2023/05/06 15:55:01;;;;;;;8.23;2.88;;;21.30;71.40;;;;;;4940485;29;20035;-80
2023/05/06 15:57:29;;;;;;;10.23;3.35;;;21.20;71.60;;;;;;4926294;29;20032;-81
2023/05/06 15:59:55;;;;;;;5.97;2.50;;;21.20;71.30;;;;;;4939516;29;20101;-78
2023/05/06 16:02:21;;;;;;;5.85;2.08;;;21.20;71.30;;;;;;4936605;29;20102;-79
2023/05/06 16:04:47;;;;;;;7.30;3.13;;;21.20;71.60;;;;;;4922098;29;20059;-78
2023/05/06 16:07:12;;;;;;;7.20;3.05;;;21.10;71.30;;;;;;4905096;29;20032;-86
2023/05/06 16:09:38;;;;;;;5.03;2.50;;;21.00;71.90;;;;;;4915790;29;20133;-78
2023/05/06 16:12:04;;;;;;;5.07;2.58;;;20.90;72.70;;;;;;4921849;29;20097;-78
2023/05/06 16:14:30;;;;;;;4.45;2.53;;;20.90;72.80;;;;;;4932950;29;20039;-79
2023/05/06 16:16:56;;;;;;;7.30;3.55;;;20.90;72.90;;;;;;4940366;29;20082;-84
2023/05/06 16:19:22;;;;;;;9.00;3.30;;;20.90;72.40;;;;;;4912093;29;20491;-78
2023/05/06 16:21:47;;;;;;;5.22;3.03;;;20.80;72.50;;;;;;4937237;29;20042;-78
2023/05/06 16:24:13;;;;;;;5.68;2.70;;;20.80;72.70;;;;;;4937485;29;20028;-78
2023/05/06 16:26:39;;;;;;;6.30;2.78;;;20.90;72.20;;;;;;4939684;29;20038;-78
2023/05/06 16:29:05;;;;;;;4.95;3.10;;;20.90;72.80;;;;;;4940507;29;20039;-81
2023/05/06 16:31:32;;;;;;;6.38;3.63;;;21.00;72.60;;;;;;4937331;29;20055;-79
2023/05/06 16:33:58;;;;;;;4.78;2.50;;;21.10;72.40;;;;;;4936882;29;20030;-79
2023/05/06 16:36:27;;;;;;;9.88;3.42;;;21.10;72.40;;;;;;4919889;29;20023;-88
2023/05/06 16:38:55;;;;;;;7.88;2.90;;;21.10;72.70;;;;;;4934269;29;20059;-81
2023/05/06 16:41:20;;;;;;;7.43;3.35;;;21.10;72.50;;;;;;4939489;29;20023;-77
2023/05/06 16:43:46;;;;;;;4.75;2.63;;;21.00;72.50;;;;;;4932580;29;20043;-76
2023/05/06 16:46:12;;;;;;;6.28;3.38;;;21.00;72.80;;;;;;4939008;29;20031;-78
2023/05/06 16:48:37;;;;;;;5.05;3.10;;;21.00;72.60;;;;;;4920287;29;20031;-77
2023/05/06 16:51:03;;;;;;;4.65;2.95;;;21.00;73.10;;;;;;4905205;29;20027;-80
2023/05/06 16:53:29;;;;;;;8.23;3.78;;;21.00;73.30;;;;;;4936324;29;20043;-75
2023/05/06 16:55:57;;;;;;;4.32;2.80;;;21.00;73.30;;;;;;4916185;29;20038;-75
2023/05/06 16:58:25;;;;;;;5.13;3.15;;;21.10;73.20;;;;;;4933888;29;20478;-84
2023/05/06 17:00:53;;;;;;;5.55;3.05;;;21.10;73.60;;;;;;4933754;29;20027;-81
2023/05/06 17:03:21;;;;;;;6.40;2.92;;;20.90;73.30;;;;;;4915429;29;20042;-78
2023/05/06 17:05:47;;;;;;;4.20;2.92;;;20.90;73.60;;;;;;4909076;29;20061;-78
2023/05/06 17:08:13;;;;;;;5.20;2.90;;;20.90;73.40;;;;;;4935733;29;20111;-79
2023/05/06 17:10:38;;;;;;;3.95;3.28;;;20.80;73.50;;;;;;4920879;29;20034;-81
2023/05/06 17:13:04;;;;;;;6.75;2.75;;;20.80;73.50;;;;;;4936365;29;20032;-78
2023/05/06 17:15:30;;;;;;;5.65;3.17;;;20.80;73.70;;;;;;4936926;29;20066;-78